createdAt,value
2018-05-15T00:00:42.568Z,87.33
2018-05-15T00:03:08.965Z,85.83
2018-05-15T00:05:35.393Z,85.10
2018-05-15T00:08:02.529Z,84.72
2018-05-15T00:10:29.006Z,85.73
2018-05-15T00:12:55.454Z,85.68
2018-05-15T00:15:21.925Z,85.58
2018-05-15T00:17:48.418Z,86.04
2018-05-15T00:20:14.838Z,86.68
2018-05-15T00:22:41.271Z,86.85
2018-05-15T00:25:07.684Z,87.56
2018-05-15T00:27:34.192Z,88.17
2018-05-15T00:30:00.610Z,88.35
2018-05-15T00:32:27.054Z,89.31
2018-05-15T00:34:53.469Z,89.27
2018-05-15T00:37:19.911Z,88.77
2018-05-15T00:39:46.322Z,87.73
2018-05-15T00:42:12.687Z,88.18
2018-05-15T00:44:39.131Z,87.67
2018-05-15T00:47:05.578Z,85.73
2018-05-15T00:49:32.002Z,85.52
2018-05-15T00:51:58.375Z,86.51
2018-05-15T00:54:24.809Z,86.00
2018-05-15T00:56:51.291Z,86.23
2018-05-15T00:59:17.668Z,86.29
2018-05-15T01:01:44.237Z,86.02
2018-05-15T01:04:10.603Z,86.46
2018-05-15T01:06:37.065Z,86.69
2018-05-15T01:09:03.560Z,87.06
2018-05-15T01:11:29.970Z,87.12
2018-05-15T01:13:56.453Z,86.71
2018-05-15T01:16:22.949Z,87.16
2018-05-15T01:18:49.313Z,86.43
2018-05-15T01:21:15.773Z,86.59
2018-05-15T01:23:42.126Z,86.59
2018-05-15T01:26:08.673Z,86.35
2018-05-15T01:28:35.137Z,86.78
2018-05-15T01:31:01.600Z,86.64
2018-05-15T01:33:28.066Z,86.63
2018-05-15T01:35:54.690Z,86.92
2018-05-15T01:38:21.088Z,87.42
2018-05-15T01:40:47.483Z,87.82
2018-05-15T01:43:13.854Z,86.96
2018-05-15T01:45:40.253Z,87.16
2018-05-15T01:48:06.687Z,87.13
2018-05-15T01:50:33.020Z,86.98
2018-05-15T01:52:59.380Z,86.69
2018-05-15T01:55:25.709Z,86.34
2018-05-15T01:57:52.141Z,86.47
2018-05-15T02:00:18.606Z,86.44
2018-05-15T02:02:45.018Z,86.63
2018-05-15T02:05:11.397Z,86.30
2018-05-15T02:07:37.909Z,87.06
2018-05-15T02:10:04.288Z,86.31
2018-05-15T02:12:30.650Z,86.85
2018-05-15T02:14:57.109Z,86.82
2018-05-15T02:17:23.507Z,86.94
2018-05-15T02:19:49.881Z,86.87
2018-05-15T02:22:16.298Z,86.82
2018-05-15T02:24:42.623Z,87.25
2018-05-15T02:27:09.072Z,87.19
2018-05-15T02:29:35.464Z,87.34
2018-05-15T02:32:01.840Z,87.88
2018-05-15T02:34:28.205Z,87.56
2018-05-15T02:36:54.630Z,87.76
2018-05-15T02:39:21.044Z,88.14
2018-05-15T02:41:47.498Z,88.10
2018-05-15T02:44:13.923Z,88.78
2018-05-15T02:46:40.369Z,88.87
2018-05-15T02:49:06.701Z,88.67
2018-05-15T02:51:33.138Z,89.12
2018-05-15T02:53:59.600Z,88.85
2018-05-15T02:56:26.059Z,89.16
2018-05-15T02:58:52.564Z,89.05
2018-05-15T03:01:18.999Z,88.77
2018-05-15T03:03:45.371Z,88.59
2018-05-15T03:06:11.895Z,88.88
2018-05-15T03:08:38.353Z,88.80
2018-05-15T03:11:04.862Z,88.50
2018-05-15T03:13:31.423Z,88.20
2018-05-15T03:15:57.833Z,88.16
2018-05-15T03:18:24.333Z,88.02
2018-05-15T03:20:50.865Z,87.82
2018-05-15T03:23:17.299Z,87.39
2018-05-15T03:25:43.666Z,87.21
2018-05-15T03:28:10.220Z,87.17
2018-05-15T03:30:36.579Z,86.15
2018-05-15T03:33:02.957Z,86.49
2018-05-15T03:35:29.438Z,85.87
2018-05-15T03:37:55.946Z,84.90
2018-05-15T03:40:22.317Z,83.65
2018-05-15T03:42:48.742Z,81.67
2018-05-15T03:45:15.152Z,79.40
2018-05-15T03:47:41.692Z,79.67
2018-05-15T03:50:08.142Z,80.86
2018-05-15T03:52:34.545Z,81.72
2018-05-15T03:55:01.036Z,83.49
2018-05-15T03:57:27.503Z,83.58
2018-05-15T03:59:53.877Z,83.28
2018-05-15T04:02:32.425Z,85.43
2018-05-15T04:05:10.802Z,83.66
2018-05-15T04:07:49.442Z,84.42
2018-05-15T04:10:15.910Z,85.05
2018-05-15T04:12:42.268Z,85.01
2018-05-15T04:15:08.689Z,85.00
2018-05-15T04:17:35.117Z,85.23
2018-05-15T04:20:01.545Z,85.92
2018-05-15T04:22:27.932Z,86.17
2018-05-15T04:24:54.380Z,86.53
2018-05-15T04:27:20.872Z,85.94
2018-05-15T04:29:47.241Z,85.94
2018-05-15T04:32:13.629Z,85.43
2018-05-15T04:34:39.941Z,84.53
2018-05-15T04:37:06.436Z,84.54
2018-05-15T04:39:32.827Z,83.63
2018-05-15T04:41:59.305Z,83.62
2018-05-15T04:44:25.936Z,82.08
2018-05-15T04:46:52.442Z,79.31
2018-05-15T04:49:18.907Z,80.29
2018-05-15T04:51:45.242Z,81.58
2018-05-15T04:54:11.622Z,82.66
2018-05-15T04:56:38.094Z,83.29
2018-05-15T04:59:04.552Z,84.56
2018-05-15T05:01:30.937Z,84.38
2018-05-15T05:03:57.450Z,82.01
2018-05-15T05:06:23.905Z,81.17
2018-05-15T05:08:50.236Z,80.65
2018-05-15T05:11:16.897Z,79.28
2018-05-15T05:13:43.617Z,79.85
2018-05-15T05:16:10.048Z,79.20
2018-05-15T05:18:36.450Z,77.83
2018-05-15T05:21:02.898Z,79.06
2018-05-15T05:23:29.258Z,80.39
2018-05-15T05:25:55.679Z,79.30
2018-05-15T05:28:22.263Z,81.11
2018-05-15T05:30:48.601Z,81.66
2018-05-15T05:33:15.047Z,80.50
2018-05-15T05:35:41.498Z,79.28
2018-05-15T05:38:07.930Z,75.25
2018-05-15T05:40:34.544Z,73.80
2018-05-15T05:43:01.203Z,67.46
2018-05-15T05:45:27.991Z,66.11
2018-05-15T05:47:54.483Z,64.93
2018-05-15T05:50:20.927Z,71.55
2018-05-15T05:52:47.363Z,63.79
2018-05-15T05:55:13.823Z,69.69
2018-05-15T05:57:40.299Z,66.46
2018-05-15T06:00:06.716Z,65.92
2018-05-15T06:02:33.175Z,62.10
2018-05-15T06:04:59.708Z,62.85
2018-05-15T06:07:26.766Z,62.23
2018-05-15T06:09:53.189Z,62.35
2018-05-15T06:12:19.645Z,65.35
2018-05-15T06:14:46.439Z,63.56
2018-05-15T06:17:12.938Z,68.39
2018-05-15T06:19:39.311Z,63.37
2018-05-15T06:22:05.697Z,64.43
2018-05-15T06:24:32.135Z,64.39
2018-05-15T06:26:58.510Z,65.85
2018-05-15T06:29:25.744Z,66.81
2018-05-15T06:31:52.106Z,62.49
2018-05-15T06:34:18.496Z,61.00
2018-05-15T06:36:44.884Z,59.38
2018-05-15T06:39:11.213Z,61.97
2018-05-15T06:41:37.602Z,59.67
2018-05-15T06:44:03.967Z,58.71
2018-05-15T06:46:30.345Z,56.03
2018-05-15T06:48:56.717Z,61.81
2018-05-15T06:51:23.141Z,59.53
2018-05-15T06:53:49.560Z,59.67
2018-05-15T06:56:15.954Z,62.83
2018-05-15T06:58:42.401Z,63.76
2018-05-15T07:01:08.728Z,61.82
2018-05-15T07:03:35.082Z,61.68
2018-05-15T07:06:01.587Z,58.77
2018-05-15T07:08:28.077Z,55.84
2018-05-15T07:10:54.557Z,60.41
2018-05-15T07:13:21.028Z,58.43
2018-05-15T07:15:47.588Z,55.41
2018-05-15T07:18:14.113Z,54.47
2018-05-15T07:20:40.520Z,56.69
2018-05-15T07:23:07.003Z,54.55
2018-05-15T07:25:33.495Z,58.99
2018-05-15T07:28:00.077Z,56.80
2018-05-15T07:30:26.529Z,52.39
2018-05-15T07:32:52.919Z,54.67
2018-05-15T07:35:19.382Z,55.01
2018-05-15T07:37:45.850Z,55.67
2018-05-15T07:40:12.343Z,54.33
2018-05-15T07:42:38.815Z,55.22
2018-05-15T07:45:05.188Z,52.33
2018-05-15T07:47:31.747Z,57.58
2018-05-15T07:49:58.179Z,55.63
2018-05-15T07:52:24.604Z,58.20
2018-05-15T07:54:51.061Z,51.83
2018-05-15T07:57:17.533Z,58.68
2018-05-15T07:59:44.143Z,57.13
2018-05-15T08:02:10.805Z,56.56
2018-05-15T08:04:37.777Z,51.95
2018-05-15T08:07:05.331Z,51.45
2018-05-15T08:09:31.730Z,52.78
2018-05-15T08:11:59.157Z,53.23
2018-05-15T08:14:25.839Z,55.94
2018-05-15T08:16:52.539Z,56.03
2018-05-15T08:19:19.165Z,53.28
2018-05-15T08:21:45.545Z,52.58
2018-05-15T08:24:11.963Z,53.06
2018-05-15T08:26:38.449Z,54.58
2018-05-15T08:29:04.963Z,51.35
2018-05-15T08:31:31.399Z,53.24
2018-05-15T08:33:57.818Z,49.95
2018-05-15T08:36:24.212Z,49.39
2018-05-15T08:38:50.723Z,52.08
2018-05-15T08:41:17.076Z,49.21
2018-05-15T08:43:43.436Z,49.83
2018-05-15T08:46:09.894Z,48.85
2018-05-15T08:48:37.274Z,49.98
2018-05-15T08:51:03.704Z,45.59
2018-05-15T08:53:30.155Z,47.63
2018-05-15T08:55:56.543Z,51.46
2018-05-15T08:58:22.976Z,47.28
2018-05-15T09:00:49.458Z,49.50
2018-05-15T09:03:15.836Z,51.24
2018-05-15T09:05:42.300Z,46.43
2018-05-15T09:08:08.774Z,49.51
2018-05-15T09:10:35.173Z,48.88
2018-05-15T09:13:01.567Z,48.18
2018-05-15T09:15:28.123Z,51.14
2018-05-15T09:17:54.654Z,49.54
2018-05-15T09:20:21.058Z,49.89
2018-05-15T09:22:47.438Z,45.97
2018-05-15T09:25:13.986Z,49.94
2018-05-15T09:27:40.466Z,54.46
2018-05-15T09:30:06.867Z,52.13
2018-05-15T09:32:33.226Z,54.27
2018-05-15T09:34:59.658Z,53.63
2018-05-15T09:37:26.159Z,54.36
2018-05-15T09:39:52.624Z,48.48
2018-05-15T09:42:19.092Z,51.59
2018-05-15T09:44:45.496Z,51.37
2018-05-15T09:47:12.065Z,50.88
2018-05-15T09:49:38.538Z,52.64
2018-05-15T09:52:04.902Z,45.89
2018-05-15T09:54:31.299Z,48.77
2018-05-15T09:56:57.786Z,49.63
2018-05-15T09:59:25.002Z,47.76
2018-05-15T10:01:51.478Z,45.71
2018-05-15T10:04:17.917Z,47.42
2018-05-15T10:06:44.329Z,45.76
2018-05-15T10:09:10.814Z,47.41
2018-05-15T10:11:37.236Z,46.32
2018-05-15T10:14:03.706Z,47.13
2018-05-15T10:16:30.124Z,48.25
2018-05-15T10:18:56.684Z,43.79
2018-05-15T10:21:23.315Z,46.92
2018-05-15T10:23:49.775Z,47.73
2018-05-15T10:26:16.230Z,52.19
2018-05-15T10:28:42.629Z,45.58
2018-05-15T10:31:09.035Z,46.99
2018-05-15T10:33:35.531Z,49.59
2018-05-15T10:36:02.874Z,46.48
2018-05-15T10:38:29.259Z,48.24
2018-05-15T10:40:55.730Z,56.04
2018-05-15T10:43:22.224Z,49.03
2018-05-15T10:45:48.609Z,53.11
2018-05-15T10:48:15.119Z,54.04
2018-05-15T10:50:41.538Z,51.42
2018-05-15T10:53:07.918Z,50.44
2018-05-15T10:55:34.332Z,49.51
2018-05-15T10:58:00.742Z,49.39
2018-05-15T11:00:27.106Z,48.82
2018-05-15T11:02:53.557Z,48.09
2018-05-15T11:05:19.959Z,53.18
2018-05-15T11:07:46.418Z,50.79
2018-05-15T11:10:12.939Z,47.91
2018-05-15T11:12:39.353Z,53.96
2018-05-15T11:15:05.718Z,49.34
2018-05-15T11:17:32.155Z,51.76
2018-05-15T11:20:10.834Z,52.38
2018-05-15T11:22:49.538Z,55.93
2018-05-15T11:25:16.027Z,50.44
2018-05-15T11:27:42.459Z,51.99
2018-05-15T11:30:08.938Z,51.54
2018-05-15T11:32:35.483Z,51.72
2018-05-15T11:35:01.828Z,50.10
2018-05-15T11:37:28.298Z,49.28
2018-05-15T11:39:54.716Z,48.33
2018-05-15T11:42:21.089Z,46.68
2018-05-15T11:44:47.551Z,45.27
2018-05-15T11:47:14.095Z,49.14
2018-05-15T11:49:41.780Z,48.77
2018-05-15T11:52:07.702Z,48.17
2018-05-15T11:54:33.630Z,45.79
2018-05-15T11:56:59.985Z,41.90
2018-05-15T11:59:26.474Z,47.06
2018-05-15T12:01:53.785Z,47.46
2018-05-15T12:04:20.163Z,47.06
2018-05-15T12:06:46.593Z,49.98
2018-05-15T12:09:13.178Z,50.16
2018-05-15T12:11:39.549Z,44.98
2018-05-15T12:14:05.975Z,47.22
2018-05-15T12:16:32.385Z,51.25
2018-05-15T12:18:58.785Z,49.00
2018-05-15T12:21:25.166Z,47.27
2018-05-15T12:23:51.615Z,47.49
2018-05-15T12:26:18.006Z,51.74
2018-05-15T12:28:44.476Z,48.16
2018-05-15T12:31:10.875Z,47.96
2018-05-15T12:33:37.340Z,41.79
2018-05-15T12:36:03.835Z,46.01
2018-05-15T12:38:30.219Z,41.18
2018-05-15T12:40:56.675Z,47.07
2018-05-15T12:43:23.140Z,39.47
2018-05-15T12:45:49.507Z,43.19
2018-05-15T12:48:15.914Z,44.66
2018-05-15T12:50:42.508Z,44.38
2018-05-15T12:53:08.925Z,45.21
2018-05-15T12:55:35.414Z,42.97
2018-05-15T12:58:01.922Z,44.88
2018-05-15T13:00:28.354Z,48.50
2018-05-15T13:02:54.798Z,43.59
2018-05-15T13:05:21.280Z,42.76
2018-05-15T13:07:47.821Z,45.41
2018-05-15T13:10:14.988Z,46.90
2018-05-15T13:12:41.631Z,49.65
2018-05-15T13:15:08.164Z,47.78
2018-05-15T13:17:34.853Z,48.77
2018-05-15T13:20:01.391Z,50.04
2018-05-15T13:22:28.727Z,47.06
2018-05-15T13:24:55.225Z,50.30
2018-05-15T13:27:21.813Z,49.61
2018-05-15T13:29:48.310Z,56.82
2018-05-15T13:32:14.824Z,59.69
2018-05-15T13:34:41.503Z,60.67
2018-05-15T13:37:08.151Z,60.62
2018-05-15T13:39:34.753Z,63.79
2018-05-15T13:42:01.312Z,65.60
2018-05-15T13:44:27.861Z,71.17
2018-05-15T13:46:54.505Z,70.97
2018-05-15T13:49:20.997Z,69.37
2018-05-15T13:51:47.526Z,70.62
2018-05-15T13:54:14.064Z,73.06
2018-05-15T13:56:40.609Z,74.25
2018-05-15T13:59:07.308Z,71.19
2018-05-15T14:01:33.712Z,74.28
2018-05-15T14:04:00.133Z,76.45
2018-05-15T14:06:26.546Z,76.83
2018-05-15T14:08:53.111Z,78.12
2018-05-15T14:11:19.668Z,77.78
2018-05-15T14:13:46.117Z,78.15
2018-05-15T14:16:12.572Z,80.87
2018-05-15T14:18:39.220Z,82.44
2018-05-15T14:21:05.686Z,83.75
2018-05-15T14:23:32.294Z,85.48
2018-05-15T14:25:58.877Z,85.79
2018-05-15T14:28:25.347Z,86.20
2018-05-15T14:30:51.908Z,83.75
2018-05-15T14:33:18.533Z,85.58
2018-05-15T14:35:45.061Z,84.76
2018-05-15T14:38:11.583Z,88.40
2018-05-15T14:40:38.156Z,86.48
2018-05-15T14:43:21.585Z,85.73
2018-05-15T14:45:48.143Z,84.67
2018-05-15T14:48:14.613Z,89.07
2018-05-15T14:50:48.291Z,89.13
2018-05-15T14:53:14.635Z,88.23
2018-05-15T14:55:41.167Z,88.68
2018-05-15T14:58:08.428Z,90.48
2018-05-15T15:00:34.953Z,90.76
2018-05-15T15:03:01.446Z,90.02
2018-05-15T15:05:28.089Z,88.48
2018-05-15T15:07:54.618Z,88.38
2018-05-15T15:10:21.071Z,88.71
2018-05-15T15:12:47.668Z,89.15
2018-05-15T15:15:14.257Z,88.44
2018-05-15T15:17:41.080Z,88.94
2018-05-15T15:20:07.684Z,88.92
2018-05-15T15:22:34.246Z,89.47
2018-05-15T15:25:00.645Z,88.71
2018-05-15T15:27:27.275Z,87.92
2018-05-15T15:29:53.705Z,88.60
2018-05-15T15:32:20.310Z,88.36
2018-05-15T15:34:46.797Z,90.27
2018-05-15T15:37:13.201Z,89.23
2018-05-15T15:39:39.721Z,89.50
2018-05-15T15:42:06.720Z,88.44
2018-05-15T15:44:33.133Z,89.58
2018-05-15T15:46:59.608Z,89.75
2018-05-15T15:49:26.153Z,89.92
2018-05-15T15:51:52.565Z,92.08
2018-05-15T15:54:19.026Z,89.56
2018-05-15T15:56:45.641Z,90.76
2018-05-15T15:59:12.101Z,91.38
2018-05-15T16:01:38.548Z,93.52
2018-05-15T16:04:05.039Z,93.44
2018-05-15T16:06:31.426Z,93.21
2018-05-15T16:08:58.183Z,92.05
2018-05-15T16:11:24.906Z,91.82
2018-05-15T16:13:51.573Z,93.11
2018-05-15T16:16:18.174Z,93.32
2018-05-15T16:18:45.277Z,93.69
2018-05-15T16:21:11.949Z,93.08
2018-05-15T16:23:38.858Z,92.35
2018-05-15T16:26:05.403Z,92.31
2018-05-15T16:28:32.191Z,92.16
2018-05-15T16:30:58.846Z,92.57
2018-05-15T16:33:25.371Z,91.90
2018-05-15T16:35:52.082Z,92.63
2018-05-15T16:38:18.631Z,92.65
2018-05-15T16:40:45.214Z,94.36
2018-05-15T16:43:11.887Z,93.78
2018-05-15T16:45:38.380Z,92.48
2018-05-15T16:48:05.256Z,92.86
2018-05-15T16:50:32.431Z,92.24
2018-05-15T16:52:59.505Z,91.94
2018-05-15T16:55:26.121Z,92.22
2018-05-15T16:57:52.697Z,93.18
2018-05-15T17:00:19.406Z,92.67
2018-05-15T17:02:46.027Z,92.90
2018-05-15T17:05:12.485Z,93.71
2018-05-15T17:07:38.924Z,94.22
2018-05-15T17:10:05.367Z,94.33
2018-05-15T17:12:31.881Z,94.87
2018-05-15T17:14:58.739Z,95.75
2018-05-15T17:17:25.336Z,95.74
2018-05-15T17:19:53.554Z,95.08
2018-05-15T17:22:20.251Z,95.54
2018-05-15T17:24:47.268Z,95.29
2018-05-15T17:27:14.360Z,95.63
2018-05-15T17:29:41.182Z,95.70
2018-05-15T17:32:08.299Z,95.82
2018-05-15T17:34:34.872Z,96.62
2018-05-15T17:37:01.589Z,96.68
2018-05-15T17:39:28.247Z,96.29
2018-05-15T17:41:54.849Z,96.91
2018-05-15T17:44:21.511Z,97.55
2018-05-15T17:46:48.071Z,97.64
2018-05-15T17:49:14.706Z,97.15
2018-05-15T17:51:41.543Z,97.08
2018-05-15T17:54:08.217Z,97.46
2018-05-15T17:56:34.900Z,97.42
2018-05-15T17:59:01.493Z,96.98
2018-05-15T18:01:28.316Z,96.93
2018-05-15T18:03:54.956Z,96.73
2018-05-15T18:06:21.790Z,97.34
2018-05-15T18:08:48.329Z,97.88
2018-05-15T18:11:15.130Z,97.32
2018-05-15T18:13:41.540Z,96.70
2018-05-15T18:16:08.351Z,97.71
2018-05-15T18:18:34.986Z,96.93
2018-05-15T18:21:01.613Z,96.38
2018-05-15T18:23:28.735Z,96.74
2018-05-15T18:25:55.419Z,97.61
2018-05-15T18:28:22.254Z,97.04
2018-05-15T18:30:48.911Z,97.22
2018-05-15T18:33:15.644Z,96.77
2018-05-15T18:35:42.305Z,97.44
2018-05-15T18:38:09.087Z,97.41
2018-05-15T18:40:35.815Z,97.48
2018-05-15T18:43:02.574Z,97.81
2018-05-15T18:45:29.268Z,97.33
2018-05-15T18:47:56.595Z,97.84
2018-05-15T18:50:23.293Z,98.28
2018-05-15T18:52:50.262Z,98.90
2018-05-15T18:55:16.899Z,98.88
2018-05-15T18:57:43.370Z,98.71
2018-05-15T19:00:09.816Z,98.78
2018-05-15T19:02:36.471Z,98.56
2018-05-15T19:05:03.000Z,98.49
2018-05-15T19:07:29.672Z,97.62
2018-05-15T19:09:56.718Z,97.08
2018-05-15T19:12:23.343Z,97.45
2018-05-15T19:14:50.673Z,98.09
2018-05-15T19:17:17.570Z,98.10
2018-05-15T19:19:44.230Z,98.01
2018-05-15T19:22:11.886Z,98.11
2018-05-15T19:24:38.793Z,97.19
2018-05-15T19:27:05.529Z,96.78
2018-05-15T19:29:32.125Z,97.85
2018-05-15T19:34:55.779Z,98.39
2018-05-15T19:37:22.238Z,97.55
2018-05-15T19:39:49.646Z,98.12
2018-05-15T19:42:16.274Z,98.64
2018-05-15T19:44:43.353Z,98.57
2018-05-15T19:47:10.045Z,98.63
2018-05-15T19:49:36.668Z,97.32
2018-05-15T19:52:04.383Z,98.07
2018-05-15T19:54:31.701Z,98.28
2018-05-15T19:56:58.616Z,98.36
2018-05-15T19:59:25.268Z,97.88
2018-05-15T20:01:51.912Z,98.79
2018-05-15T20:04:18.575Z,99.48
2018-05-15T20:06:45.101Z,99.27
2018-05-15T20:09:11.657Z,98.52
2018-05-15T20:11:38.992Z,98.42
2018-05-15T20:14:06.116Z,98.47
2018-05-15T20:16:32.823Z,98.82
2018-05-15T20:18:59.471Z,99.47
2018-05-15T20:21:25.985Z,99.07
2018-05-15T20:23:52.562Z,99.62
2018-05-15T20:26:19.172Z,99.32
2018-05-15T20:28:45.907Z,99.95
2018-05-15T20:31:12.350Z,100.00
2018-05-15T20:33:38.907Z,99.65
2018-05-15T20:36:05.409Z,99.94
2018-05-15T20:38:32.052Z,100.00
2018-05-15T20:40:58.559Z,100.00
2018-05-15T20:43:25.438Z,100.00
2018-05-15T20:45:52.132Z,100.00
2018-05-15T20:48:18.603Z,100.00
2018-05-15T20:50:45.267Z,100.00
2018-05-15T20:53:11.742Z,100.00
2018-05-15T20:55:38.390Z,100.00
2018-05-15T20:58:06.277Z,100.00
2018-05-15T21:00:32.802Z,99.41
2018-05-15T21:02:59.281Z,98.72
2018-05-15T21:05:25.847Z,99.61
2018-05-15T21:07:53.034Z,98.80
2018-05-15T21:10:19.541Z,97.77
2018-05-15T21:12:45.987Z,96.03
2018-05-15T21:15:12.428Z,96.85
2018-05-15T21:17:38.690Z,98.02
2018-05-15T21:20:05.353Z,97.80
2018-05-15T21:22:32.195Z,97.83
2018-05-15T21:24:58.569Z,97.32
2018-05-15T21:27:24.966Z,96.96
2018-05-15T21:29:51.422Z,96.37
2018-05-15T21:32:17.794Z,95.98
2018-05-15T21:34:44.190Z,97.94
2018-05-15T21:37:10.609Z,97.25
2018-05-15T21:39:36.991Z,98.65
2018-05-15T21:42:03.422Z,98.80
2018-05-15T21:44:29.770Z,97.29
2018-05-15T21:46:56.223Z,98.44
2018-05-15T21:49:22.714Z,98.12
2018-05-15T21:51:49.251Z,97.92
2018-05-15T21:54:15.648Z,98.58
2018-05-15T21:56:42.292Z,98.75
2018-05-15T21:59:08.876Z,98.55
2018-05-15T22:01:35.395Z,97.07
2018-05-15T22:04:01.976Z,98.42
2018-05-15T22:06:28.489Z,98.96
2018-05-15T22:08:55.093Z,98.75
2018-05-15T22:11:21.281Z,99.07
2018-05-15T22:13:59.939Z,98.59
2018-05-15T22:16:38.632Z,98.94
2018-05-15T22:19:17.096Z,97.88
2018-05-15T22:21:55.803Z,96.74
2018-05-15T22:24:25.408Z,98.13
2018-05-15T22:26:51.796Z,95.72
2018-05-15T22:29:18.318Z,94.42
2018-05-15T22:31:44.744Z,96.13
2018-05-15T22:34:11.145Z,96.37
2018-05-15T22:36:37.635Z,97.15
2018-05-15T22:39:05.081Z,98.03
2018-05-15T22:41:31.418Z,97.60
2018-05-15T22:43:58.116Z,97.72
2018-05-15T22:46:24.475Z,98.02
2018-05-15T22:48:51.278Z,97.56
2018-05-15T22:51:17.726Z,97.21
2018-05-15T22:53:44.160Z,97.66
2018-05-15T22:56:10.502Z,97.35
2018-05-15T22:58:37.005Z,97.21
2018-05-15T23:01:03.380Z,97.40
2018-05-15T23:03:29.753Z,95.91
2018-05-15T23:05:56.146Z,96.16
2018-05-15T23:08:22.592Z,96.34
2018-05-15T23:10:48.936Z,97.58
2018-05-15T23:13:15.371Z,98.19
2018-05-15T23:15:41.717Z,97.58
2018-05-15T23:18:08.118Z,98.04
2018-05-15T23:20:34.536Z,97.17
2018-05-15T23:23:00.954Z,96.41
2018-05-15T23:25:27.333Z,96.91
2018-05-15T23:27:53.766Z,94.55
2018-05-15T23:30:20.154Z,95.29
2018-05-15T23:32:46.604Z,93.62
2018-05-15T23:35:13.044Z,94.66
2018-05-15T23:37:39.445Z,96.73
2018-05-15T23:40:05.941Z,97.92
2018-05-15T23:42:32.394Z,96.87
2018-05-15T23:44:58.752Z,96.13
2018-05-15T23:47:25.123Z,97.80
2018-05-15T23:49:51.560Z,97.45
2018-05-15T23:52:17.949Z,97.75
2018-05-15T23:54:44.425Z,97.96
2018-05-15T23:57:10.830Z,97.92
2018-05-15T23:59:37.311Z,98.03
